createdAt,value
2023-03-08T00:00:25.763Z,3.47
2023-03-08T00:02:53.958Z,3.53
2023-03-08T00:05:20.513Z,3.50
2023-03-08T00:07:47.056Z,3.43
2023-03-08T00:10:14.514Z,3.60
2023-03-08T00:12:41.143Z,3.30
2023-03-08T00:15:07.972Z,4.23
2023-03-08T00:17:36.663Z,3.40
2023-03-08T00:20:05.887Z,3.73
2023-03-08T00:22:39.729Z,3.43
2023-03-08T00:25:06.726Z,3.70
2023-03-08T00:27:33.257Z,3.07
2023-03-08T00:29:59.874Z,3.40
2023-03-08T00:32:26.892Z,3.50
2023-03-08T00:34:53.789Z,3.60
2023-03-08T00:37:20.661Z,3.17
2023-03-08T00:39:53.487Z,3.73
2023-03-08T00:42:23.538Z,3.77
2023-03-08T00:44:50.233Z,3.10
2023-03-08T00:47:17.037Z,3.57
2023-03-08T00:49:44.131Z,4.43
2023-03-08T00:52:10.849Z,4.03
2023-03-08T00:54:37.687Z,3.50
2023-03-08T00:57:04.328Z,3.47
2023-03-08T00:59:30.834Z,3.43
2023-03-08T01:01:57.444Z,3.00
2023-03-08T01:04:24.083Z,3.40
2023-03-08T01:06:50.631Z,3.13
2023-03-08T01:09:17.142Z,3.43
2023-03-08T01:11:44.315Z,3.23
2023-03-08T01:14:10.907Z,3.27
2023-03-08T01:16:37.624Z,3.30
2023-03-08T01:19:04.378Z,3.27
2023-03-08T01:21:31.119Z,3.93
2023-03-08T01:23:57.781Z,3.33
2023-03-08T01:26:25.583Z,3.57
2023-03-08T01:28:52.189Z,3.23
2023-03-08T01:31:20.583Z,3.40
2023-03-08T01:33:47.363Z,3.00
2023-03-08T01:36:15.389Z,3.03
2023-03-08T01:38:42.104Z,3.47
2023-03-08T01:41:11.426Z,3.80
2023-03-08T01:43:38.640Z,3.10
2023-03-08T01:46:26.186Z,2.80
2023-03-08T01:48:56.715Z,3.17
2023-03-08T01:51:57.390Z,3.40
2023-03-08T01:54:30.014Z,3.40
2023-03-08T01:57:00.134Z,3.00
2023-03-08T01:59:26.707Z,3.30
2023-03-08T02:01:53.273Z,3.20
2023-03-08T02:04:19.838Z,3.40
2023-03-08T02:06:46.519Z,3.17
2023-03-08T02:09:13.093Z,3.00
2023-03-08T02:11:39.814Z,3.27
2023-03-08T02:14:06.378Z,3.13
2023-03-08T02:16:32.933Z,3.30
2023-03-08T02:19:01.318Z,4.60
2023-03-08T02:21:28.462Z,3.30
2023-03-08T02:23:55.305Z,3.30
2023-03-08T02:26:22.050Z,3.13
2023-03-08T02:28:48.687Z,3.27
2023-03-08T02:31:15.576Z,3.50
2023-03-08T02:33:42.160Z,3.33
2023-03-08T02:36:09.814Z,3.40
2023-03-08T02:38:36.490Z,3.20
2023-03-08T02:41:03.063Z,3.17
2023-03-08T02:43:29.661Z,3.30
2023-03-08T02:45:56.228Z,3.43
2023-03-08T02:48:22.819Z,3.57
2023-03-08T02:50:50.817Z,3.20
2023-03-08T02:53:17.463Z,3.50
2023-03-08T02:55:44.013Z,3.57
2023-03-08T02:58:10.728Z,3.27
2023-03-08T03:00:37.772Z,3.50
2023-03-08T03:03:04.478Z,3.50
2023-03-08T03:05:31.028Z,3.50
2023-03-08T03:07:58.724Z,3.50
2023-03-08T03:10:25.570Z,3.17
2023-03-08T03:12:52.129Z,3.30
2023-03-08T03:15:18.841Z,3.50
2023-03-08T03:17:45.454Z,3.40
2023-03-08T03:20:12.500Z,3.53
2023-03-08T03:22:39.020Z,3.50
2023-03-08T03:25:06.103Z,3.30
2023-03-08T03:27:32.745Z,3.20
2023-03-08T03:29:59.377Z,2.90
2023-03-08T03:32:26.008Z,3.33
2023-03-08T03:34:52.731Z,3.10
2023-03-08T03:37:19.313Z,3.13
2023-03-08T03:39:45.864Z,3.93
2023-03-08T03:42:12.445Z,4.07
2023-03-08T03:44:39.114Z,3.77
2023-03-08T03:47:05.992Z,3.57
2023-03-08T03:49:32.577Z,3.40
2023-03-08T03:51:59.226Z,3.40
2023-03-08T03:54:25.852Z,3.40
2023-03-08T03:56:52.625Z,3.57
2023-03-08T03:59:19.235Z,3.03
2023-03-08T04:01:45.795Z,3.40
2023-03-08T04:04:12.446Z,3.07
2023-03-08T04:06:39.034Z,3.47
2023-03-08T04:09:07.889Z,3.40
2023-03-08T04:11:36.277Z,3.27
2023-03-08T04:14:02.972Z,3.33
2023-03-08T04:16:31.147Z,3.60
2023-03-08T04:18:59.224Z,3.37
2023-03-08T04:21:26.004Z,3.07
2023-03-08T04:23:53.557Z,3.23
2023-03-08T04:26:20.476Z,3.03
2023-03-08T04:28:47.002Z,3.50
2023-03-08T04:31:13.445Z,3.23
2023-03-08T04:33:40.062Z,3.50
2023-03-08T04:36:06.863Z,3.77
2023-03-08T04:38:33.678Z,3.60
2023-03-08T04:41:10.315Z,3.40
2023-03-08T04:43:36.939Z,4.00
2023-03-08T04:46:04.178Z,3.83
2023-03-08T04:48:30.722Z,3.37
2023-03-08T04:50:58.860Z,3.80
2023-03-08T04:53:25.684Z,3.57
2023-03-08T04:55:53.489Z,3.63
2023-03-08T04:58:19.984Z,3.17
2023-03-08T05:00:46.578Z,3.40
2023-03-08T05:03:13.623Z,4.07
2023-03-08T05:05:54.303Z,4.97
2023-03-08T05:08:21.133Z,3.40
2023-03-08T05:10:55.368Z,3.43
2023-03-08T05:13:21.886Z,4.00
2023-03-08T05:15:48.533Z,4.03
2023-03-08T05:18:15.114Z,3.90
2023-03-08T05:20:41.667Z,4.17
2023-03-08T05:23:08.202Z,3.87
2023-03-08T05:25:34.766Z,4.03
2023-03-08T05:28:01.346Z,3.60
2023-03-08T05:30:27.988Z,4.03
2023-03-08T05:32:54.696Z,4.10
2023-03-08T05:35:21.268Z,3.77
2023-03-08T05:37:47.898Z,4.30
2023-03-08T05:40:14.539Z,4.50
2023-03-08T05:42:41.083Z,5.13
2023-03-08T05:45:08.295Z,4.07
2023-03-08T05:47:34.979Z,6.17
2023-03-08T05:50:01.510Z,5.27
2023-03-08T05:52:29.896Z,4.30
2023-03-08T05:54:56.392Z,3.97
2023-03-08T05:57:22.908Z,4.20
2023-03-08T05:59:49.505Z,4.57
2023-03-08T06:02:16.096Z,4.33
2023-03-08T06:04:42.749Z,4.30
2023-03-08T06:07:09.246Z,4.57
2023-03-08T06:09:35.783Z,4.90
2023-03-08T06:12:02.359Z,5.20
2023-03-08T06:14:29.131Z,5.00
2023-03-08T06:16:55.730Z,4.17
2023-03-08T06:19:22.379Z,4.80
2023-03-08T06:21:48.917Z,4.70
2023-03-08T06:24:15.492Z,4.80
2023-03-08T06:26:42.044Z,4.40
2023-03-08T06:29:08.548Z,4.57
2023-03-08T06:31:35.050Z,4.83
2023-03-08T06:34:01.606Z,5.07
2023-03-08T06:36:28.235Z,4.80
2023-03-08T06:38:54.819Z,4.80
2023-03-08T06:41:21.889Z,4.30
2023-03-08T06:43:48.746Z,5.07
2023-03-08T06:46:17.167Z,4.43
2023-03-08T06:48:43.964Z,5.73
2023-03-08T06:51:10.499Z,5.00
2023-03-08T06:53:38.237Z,4.77
2023-03-08T06:56:06.755Z,3.93
2023-03-08T06:58:34.335Z,4.40
2023-03-08T07:01:01.097Z,5.00
2023-03-08T07:03:27.937Z,4.37
2023-03-08T07:06:01.343Z,5.03
2023-03-08T07:08:27.984Z,4.93
2023-03-08T07:10:54.542Z,4.03
2023-03-08T07:13:23.575Z,5.10
2023-03-08T07:15:51.019Z,4.73
2023-03-08T07:18:17.837Z,4.60
2023-03-08T07:20:44.427Z,4.70
2023-03-08T07:23:10.946Z,5.70
2023-03-08T07:25:40.614Z,14.37
2023-03-08T07:28:07.168Z,12.47
2023-03-08T07:30:33.652Z,10.40
2023-03-08T07:33:00.285Z,10.37
2023-03-08T07:35:26.931Z,11.20
2023-03-08T07:37:53.468Z,12.93
2023-03-08T07:40:20.002Z,8.70
2023-03-08T07:42:46.512Z,8.60
2023-03-08T07:45:13.023Z,9.00
2023-03-08T07:47:40.607Z,9.00
2023-03-08T07:50:08.019Z,8.90
2023-03-08T07:52:34.526Z,9.33
2023-03-08T07:55:02.667Z,7.90
2023-03-08T07:57:29.243Z,7.03
2023-03-08T07:59:55.855Z,8.97
2023-03-08T08:02:22.425Z,8.17
2023-03-08T08:04:49.086Z,9.33
2023-03-08T08:07:15.927Z,6.73
2023-03-08T08:09:42.763Z,8.77
2023-03-08T08:12:09.330Z,7.07
2023-03-08T08:14:35.884Z,7.43
2023-03-08T08:17:02.409Z,7.23
2023-03-08T08:19:29.640Z,7.10
2023-03-08T08:21:56.144Z,7.00
2023-03-08T08:24:22.732Z,7.60
2023-03-08T08:26:49.310Z,5.87
2023-03-08T08:29:15.856Z,7.30
2023-03-08T08:31:42.437Z,7.00
2023-03-08T08:34:09.039Z,6.30
2023-03-08T08:36:35.624Z,6.10
2023-03-08T08:39:02.184Z,5.87
2023-03-08T08:41:29.853Z,6.43
2023-03-08T08:43:58.991Z,6.60
2023-03-08T08:46:25.950Z,6.37
2023-03-08T08:48:52.423Z,6.07
2023-03-08T08:51:18.934Z,6.10
2023-03-08T08:53:45.429Z,6.20
2023-03-08T08:56:29.068Z,6.60
2023-03-08T08:58:56.868Z,6.03
2023-03-08T09:01:25.286Z,6.13
2023-03-08T09:03:52.021Z,5.70
2023-03-08T09:06:19.892Z,5.93
2023-03-08T09:08:50.800Z,5.87
2023-03-08T09:11:17.462Z,6.57
2023-03-08T09:13:44.035Z,6.03
2023-03-08T09:16:20.390Z,5.80
2023-03-08T09:18:47.105Z,5.90
2023-03-08T09:21:14.274Z,5.70
2023-03-08T09:23:41.042Z,5.37
2023-03-08T09:26:07.609Z,5.43
2023-03-08T09:28:34.179Z,5.17
2023-03-08T09:31:02.761Z,5.37
2023-03-08T09:33:29.337Z,6.73
2023-03-08T09:35:59.310Z,5.50
2023-03-08T09:38:25.938Z,5.60
2023-03-08T09:41:17.221Z,4.90
2023-03-08T09:44:11.780Z,5.20
2023-03-08T09:46:46.217Z,6.10
2023-03-08T09:49:14.719Z,5.07
2023-03-08T09:51:43.051Z,5.07
2023-03-08T09:54:16.921Z,6.10
2023-03-08T09:56:48.266Z,4.83
2023-03-08T09:59:19.539Z,5.63
2023-03-08T10:02:17.381Z,5.87
2023-03-08T10:05:30.545Z,7.33
2023-03-08T10:08:12.555Z,5.23
2023-03-08T10:10:51.329Z,4.93
2023-03-08T10:13:38.043Z,6.47
2023-03-08T10:16:20.927Z,6.57
2023-03-08T10:18:51.525Z,4.80
2023-03-08T10:21:20.079Z,4.93
2023-03-08T10:23:47.756Z,4.60
2023-03-08T10:26:14.925Z,5.17
2023-03-08T10:28:41.510Z,4.67
2023-03-08T10:31:23.317Z,4.80
2023-03-08T10:33:53.087Z,4.83
2023-03-08T10:36:21.567Z,4.40
2023-03-08T10:39:04.564Z,5.80
2023-03-08T10:41:32.965Z,4.93
2023-03-08T10:43:59.800Z,5.20
2023-03-08T10:46:28.481Z,5.47
2023-03-08T10:48:55.077Z,4.53
2023-03-08T10:51:23.927Z,4.60
2023-03-08T10:54:02.832Z,5.07
2023-03-08T10:56:39.284Z,5.00
2023-03-08T10:59:07.162Z,4.87
2023-03-08T11:01:35.047Z,5.07
2023-03-08T11:04:06.580Z,4.50
2023-03-08T11:06:35.141Z,4.93
2023-03-08T11:09:04.522Z,5.30
2023-03-08T11:11:40.647Z,4.97
2023-03-08T11:14:09.714Z,4.43
2023-03-08T11:16:58.027Z,4.53
2023-03-08T11:19:48.147Z,4.93
2023-03-08T11:22:33.329Z,5.40
2023-03-08T11:25:08.919Z,4.73
2023-03-08T11:27:53.112Z,4.80
2023-03-08T11:30:40.921Z,4.77
2023-03-08T11:33:24.645Z,5.20
2023-03-08T11:35:57.085Z,5.17
2023-03-08T11:38:30.814Z,5.87
2023-03-08T11:41:00.285Z,5.57
2023-03-08T11:44:07.270Z,4.97
2023-03-08T11:46:42.796Z,5.37
2023-03-08T11:49:28.015Z,5.50
2023-03-08T11:51:58.314Z,5.03
2023-03-08T11:54:30.805Z,5.33
2023-03-08T11:56:57.946Z,4.90
2023-03-08T11:59:33.759Z,4.80
2023-03-08T12:02:06.258Z,4.90
2023-03-08T12:04:38.657Z,4.70
2023-03-08T12:07:09.472Z,5.97
2023-03-08T12:10:08.437Z,5.30
2023-03-08T12:12:40.946Z,6.27
2023-03-08T12:15:25.141Z,6.60
2023-03-08T12:18:16.170Z,5.33
2023-03-08T12:20:43.512Z,5.70
2023-03-08T12:23:25.288Z,4.90
2023-03-08T12:25:56.354Z,4.97
2023-03-08T12:28:26.931Z,5.13
2023-03-08T12:31:26.590Z,6.67
2023-03-08T12:33:54.927Z,4.90
2023-03-08T12:36:24.643Z,6.20
2023-03-08T12:38:56.545Z,6.10
2023-03-08T12:41:27.040Z,5.03
2023-03-08T12:44:25.930Z,5.00
2023-03-08T12:47:03.465Z,5.70
2023-03-08T12:49:35.728Z,5.90
2023-03-08T12:52:07.056Z,5.23
2023-03-08T12:54:34.647Z,5.00
2023-03-08T12:57:02.798Z,4.83
2023-03-08T12:59:36.066Z,5.17
2023-03-08T13:02:21.253Z,4.87
2023-03-08T13:04:47.773Z,5.37
2023-03-08T13:07:52.842Z,6.67
2023-03-08T13:10:24.451Z,8.70
2023-03-08T13:13:27.018Z,6.87
2023-03-08T13:16:19.950Z,7.10
2023-03-08T13:18:48.181Z,8.33
2023-03-08T13:21:31.156Z,7.03
2023-03-08T13:24:12.746Z,5.80
2023-03-08T13:27:00.617Z,7.00
2023-03-08T13:29:31.695Z,5.73
2023-03-08T13:31:58.204Z,6.03
2023-03-08T13:34:29.007Z,6.60
2023-03-08T13:36:55.854Z,5.80
2023-03-08T13:39:24.802Z,6.77
2023-03-08T13:41:51.507Z,14.10
2023-03-08T13:44:21.387Z,15.63
2023-03-08T13:46:49.226Z,15.43
2023-03-08T13:49:16.764Z,13.90
2023-03-08T13:51:44.096Z,13.10
2023-03-08T13:54:23.427Z,12.43
2023-03-08T13:56:53.345Z,12.00
2023-03-08T13:59:20.599Z,13.43
2023-03-08T14:01:50.851Z,11.50
2023-03-08T14:04:27.955Z,12.60
2023-03-08T14:06:56.116Z,12.77
2023-03-08T14:09:22.880Z,9.77
2023-03-08T14:11:55.937Z,9.67
2023-03-08T14:14:36.592Z,9.43
2023-03-08T14:17:03.305Z,9.43
2023-03-08T14:19:31.456Z,8.87
2023-03-08T14:21:59.746Z,10.20
2023-03-08T14:24:33.527Z,11.17
2023-03-08T14:27:15.664Z,9.10
2023-03-08T14:29:43.261Z,9.27
2023-03-08T14:32:13.231Z,8.63
2023-03-08T14:34:40.691Z,8.40
2023-03-08T14:37:26.455Z,7.83
2023-03-08T14:39:54.468Z,7.20
2023-03-08T14:42:24.733Z,9.97
2023-03-08T14:45:22.628Z,6.63
2023-03-08T14:47:54.084Z,6.17
2023-03-08T14:50:23.762Z,7.50
2023-03-08T14:52:52.384Z,6.90
2023-03-08T14:55:23.425Z,5.60
2023-03-08T14:58:11.310Z,6.00
2023-03-08T15:00:47.935Z,7.10
2023-03-08T15:03:14.606Z,5.60
2023-03-08T15:05:41.150Z,6.40
2023-03-08T15:08:10.325Z,5.20
2023-03-08T15:10:37.717Z,5.10
2023-03-08T15:13:05.160Z,5.77
2023-03-08T15:15:31.665Z,5.60
2023-03-08T15:17:58.180Z,4.93
2023-03-08T15:20:25.051Z,5.13
2023-03-08T15:22:53.997Z,4.87
2023-03-08T15:25:31.286Z,4.57
2023-03-08T15:27:58.052Z,4.60
2023-03-08T15:30:26.139Z,4.43
2023-03-08T15:32:52.756Z,4.93
2023-03-08T15:35:19.712Z,3.73
2023-03-08T15:37:46.345Z,4.00
2023-03-08T15:40:18.033Z,4.17
2023-03-08T15:42:44.537Z,4.40
2023-03-08T15:45:11.423Z,3.63
2023-03-08T15:47:38.111Z,3.77
2023-03-08T15:50:05.575Z,3.80
2023-03-08T15:52:32.626Z,3.83
2023-03-08T15:54:59.414Z,3.53
2023-03-08T15:57:25.967Z,5.33
2023-03-08T15:59:52.613Z,3.60
2023-03-08T16:02:19.665Z,4.57
2023-03-08T16:04:47.869Z,5.70
2023-03-08T16:07:15.826Z,3.77
2023-03-08T16:09:42.488Z,3.93
2023-03-08T16:12:09.178Z,3.00
2023-03-08T16:14:36.174Z,3.17
2023-03-08T16:17:03.862Z,3.23
2023-03-08T16:19:34.159Z,5.03
2023-03-08T16:22:01.066Z,3.33
2023-03-08T16:24:28.151Z,2.80
2023-03-08T16:26:54.830Z,2.87
2023-03-08T16:29:22.059Z,2.70
2023-03-08T16:31:49.102Z,2.70
2023-03-08T16:34:16.020Z,2.97
2023-03-08T16:36:42.523Z,2.80
2023-03-08T16:39:09.215Z,2.77
2023-03-08T16:41:39.663Z,2.80
2023-03-08T16:44:06.573Z,3.07
2023-03-08T16:46:33.125Z,2.03
2023-03-08T16:48:59.772Z,2.40
2023-03-08T16:51:27.582Z,2.97
2023-03-08T16:53:54.417Z,3.27
2023-03-08T16:56:25.047Z,2.70
2023-03-08T16:58:51.739Z,2.47
2023-03-08T17:01:18.812Z,2.30
2023-03-08T17:03:45.366Z,2.03
2023-03-08T17:06:12.834Z,2.63
2023-03-08T17:08:39.335Z,3.37
2023-03-08T17:11:06.242Z,1.97
2023-03-08T17:13:33.050Z,2.40
2023-03-08T17:15:59.585Z,2.93
2023-03-08T17:18:26.126Z,1.93
2023-03-08T17:20:52.891Z,2.50
2023-03-08T17:23:19.755Z,3.50
2023-03-08T17:25:46.505Z,3.63
2023-03-08T17:28:13.122Z,2.20
2023-03-08T17:30:41.292Z,2.47
2023-03-08T17:33:09.231Z,2.30
2023-03-08T17:35:39.675Z,3.83
2023-03-08T17:38:06.333Z,1.97
2023-03-08T17:40:32.872Z,2.50
2023-03-08T17:43:02.425Z,2.67
2023-03-08T17:45:29.287Z,3.80
2023-03-08T17:48:01.150Z,3.07
2023-03-08T17:50:29.849Z,2.03
2023-03-08T17:52:56.613Z,3.33
2023-03-08T17:55:23.377Z,2.40
2023-03-08T17:57:49.865Z,2.00
2023-03-08T18:00:16.684Z,1.80
2023-03-08T18:02:43.288Z,2.50
2023-03-08T18:05:10.971Z,1.77
2023-03-08T18:07:39.344Z,2.10
2023-03-08T18:10:10.893Z,1.60
2023-03-08T18:12:37.429Z,2.20
2023-03-08T18:15:04.400Z,1.70
2023-03-08T18:17:30.929Z,2.00
2023-03-08T18:19:57.436Z,1.80
2023-03-08T18:22:23.911Z,2.20
2023-03-08T18:24:50.416Z,1.90
2023-03-08T18:27:16.923Z,1.87
2023-03-08T18:29:43.797Z,2.60
2023-03-08T18:32:10.457Z,2.07
2023-03-08T18:34:38.399Z,1.87
2023-03-08T18:37:05.294Z,2.00
2023-03-08T18:39:31.843Z,1.97
2023-03-08T18:42:00.659Z,2.10
2023-03-08T18:44:28.269Z,2.07
2023-03-08T18:46:54.940Z,1.80
2023-03-08T18:49:21.676Z,1.83
2023-03-08T18:51:48.232Z,1.97
2023-03-08T18:54:17.374Z,1.90
2023-03-08T18:56:44.255Z,2.20
2023-03-08T18:59:12.092Z,2.53
2023-03-08T19:01:38.723Z,2.07
2023-03-08T19:04:06.916Z,3.27
2023-03-08T19:06:34.400Z,2.00
2023-03-08T19:09:02.104Z,2.13
2023-03-08T19:11:28.776Z,1.90
2023-03-08T19:13:55.366Z,2.27
2023-03-08T19:16:26.034Z,2.30
2023-03-08T19:18:54.505Z,2.23
2023-03-08T19:21:28.168Z,2.13
2023-03-08T19:23:54.818Z,1.97
2023-03-08T19:26:38.684Z,2.40
2023-03-08T19:29:19.478Z,2.23
2023-03-08T19:31:53.128Z,2.23
2023-03-08T19:34:20.939Z,2.17
2023-03-08T19:36:47.743Z,1.97
2023-03-08T19:39:19.999Z,2.20
2023-03-08T19:41:55.199Z,3.83
2023-03-08T19:44:21.820Z,1.80
2023-03-08T19:46:48.453Z,1.77
2023-03-08T19:49:17.265Z,2.23
2023-03-08T19:51:44.373Z,1.90
2023-03-08T19:54:11.870Z,1.83
2023-03-08T19:56:38.436Z,1.97
2023-03-08T19:59:05.058Z,2.60
2023-03-08T20:01:31.920Z,2.17
2023-03-08T20:03:58.700Z,2.03
2023-03-08T20:06:27.441Z,2.20
2023-03-08T20:08:55.607Z,1.73
2023-03-08T20:11:22.329Z,1.90
2023-03-08T20:13:49.016Z,1.70
2023-03-08T20:16:16.068Z,1.90
2023-03-08T20:18:42.825Z,2.00
2023-03-08T20:21:30.042Z,2.47
2023-03-08T20:23:57.549Z,1.70
2023-03-08T20:26:30.656Z,1.70
2023-03-08T20:28:57.615Z,2.60
2023-03-08T20:31:26.272Z,2.07
2023-03-08T20:33:52.869Z,2.10
2023-03-08T20:36:19.620Z,2.10
2023-03-08T20:38:46.292Z,1.97
2023-03-08T20:41:15.871Z,1.90
2023-03-08T20:43:43.491Z,1.83
2023-03-08T20:46:11.707Z,1.93
2023-03-08T20:48:39.812Z,2.10
2023-03-08T20:51:07.469Z,2.00
2023-03-08T20:53:34.746Z,1.83
2023-03-08T20:56:11.478Z,1.97
2023-03-08T20:58:38.139Z,2.00
2023-03-08T21:01:14.755Z,1.87
2023-03-08T21:03:41.490Z,4.13
2023-03-08T21:06:16.031Z,1.60
2023-03-08T21:08:42.700Z,1.70
2023-03-08T21:11:09.364Z,1.77
2023-03-08T21:13:38.761Z,1.90
2023-03-08T21:16:07.500Z,1.93
2023-03-08T21:18:45.760Z,1.90
2023-03-08T21:21:27.295Z,1.77
2023-03-08T21:24:00.510Z,1.80
2023-03-08T21:26:27.731Z,1.50
2023-03-08T21:28:56.325Z,1.80
2023-03-08T21:31:23.594Z,1.77
2023-03-08T21:33:50.342Z,1.70
2023-03-08T21:36:17.242Z,2.10
2023-03-08T21:38:43.838Z,1.50
2023-03-08T21:41:20.782Z,1.63
2023-03-08T21:43:50.176Z,1.77
2023-03-08T21:46:16.980Z,1.57
2023-03-08T21:48:43.744Z,1.60
2023-03-08T21:51:10.334Z,1.40
2023-03-08T21:53:41.998Z,1.40
2023-03-08T21:56:12.894Z,1.47
2023-03-08T21:58:42.277Z,1.40
2023-03-08T22:01:29.433Z,1.50
2023-03-08T22:03:57.514Z,1.57
2023-03-08T22:06:24.271Z,1.77
2023-03-08T22:08:50.987Z,2.20
2023-03-08T22:11:18.146Z,1.60
2023-03-08T22:13:49.060Z,1.40
2023-03-08T22:16:15.679Z,1.60
2023-03-08T22:18:42.323Z,1.50
2023-03-08T22:21:08.976Z,2.23
2023-03-08T22:23:35.655Z,1.20
2023-03-08T22:26:02.281Z,1.47
2023-03-08T22:28:29.046Z,1.50
2023-03-08T22:30:55.754Z,1.53
2023-03-08T22:33:22.394Z,1.50
2023-03-08T22:35:49.156Z,1.40
2023-03-08T22:38:18.239Z,1.40
2023-03-08T22:40:44.974Z,1.67
2023-03-08T22:43:11.651Z,1.50
2023-03-08T22:45:38.364Z,1.50
2023-03-08T22:48:06.957Z,1.73
2023-03-08T22:50:33.627Z,1.37
2023-03-08T22:53:00.194Z,1.50
2023-03-08T22:55:26.868Z,1.40
2023-03-08T22:57:53.514Z,1.60
2023-03-08T23:00:20.598Z,1.43
2023-03-08T23:02:49.927Z,1.40
2023-03-08T23:05:18.451Z,1.33
2023-03-08T23:07:44.992Z,2.50
2023-03-08T23:10:12.110Z,1.60
2023-03-08T23:12:38.900Z,1.60
2023-03-08T23:15:06.324Z,1.63
2023-03-08T23:17:35.249Z,1.33
2023-03-08T23:20:06.783Z,1.40
2023-03-08T23:22:33.312Z,1.30
2023-03-08T23:24:59.941Z,1.10
2023-03-08T23:27:29.008Z,1.70
2023-03-08T23:29:55.631Z,1.60
2023-03-08T23:32:22.170Z,1.30
2023-03-08T23:34:48.755Z,1.60
2023-03-08T23:37:15.453Z,1.50
2023-03-08T23:39:43.428Z,1.70
2023-03-08T23:42:10.040Z,1.50
2023-03-08T23:44:37.776Z,1.50
2023-03-08T23:47:04.474Z,1.93
2023-03-08T23:49:31.058Z,1.33
2023-03-08T23:51:57.597Z,2.90
2023-03-08T23:54:24.276Z,1.37
2023-03-08T23:56:50.836Z,1.63
2023-03-08T23:59:19.689Z,1.50
